createdAt,value
2023-11-20T00:00:14.141Z,11.65
2023-11-20T00:02:45.108Z,11.80
2023-11-20T00:05:13.079Z,11.81
2023-11-20T00:07:41.934Z,11.56
2023-11-20T00:10:09.836Z,11.63
2023-11-20T00:12:37.482Z,11.60
2023-11-20T00:15:05.832Z,11.68
2023-11-20T00:17:33.482Z,11.72
2023-11-20T00:20:01.225Z,11.70
2023-11-20T00:22:28.815Z,11.69
2023-11-20T00:24:57.353Z,11.75
2023-11-20T00:27:25.014Z,11.80
2023-11-20T00:29:52.600Z,11.77
2023-11-20T00:32:20.174Z,11.87
2023-11-20T00:34:47.765Z,11.82
2023-11-20T00:37:19.492Z,11.86
2023-11-20T00:39:47.330Z,11.89
2023-11-20T00:42:14.931Z,11.77
2023-11-20T00:44:42.528Z,11.82
2023-11-20T00:47:10.305Z,11.74
2023-11-20T00:49:39.109Z,11.72
2023-11-20T00:52:06.851Z,11.85
2023-11-20T00:54:34.452Z,11.91
2023-11-20T00:57:02.021Z,11.91
2023-11-20T00:59:29.614Z,11.88
2023-11-20T01:01:57.221Z,11.70
2023-11-20T01:04:24.858Z,11.82
2023-11-20T01:06:52.752Z,11.82
2023-11-20T01:09:20.593Z,11.86
2023-11-20T01:11:48.180Z,11.87
2023-11-20T01:14:15.962Z,11.89
2023-11-20T01:16:43.566Z,11.97
2023-11-20T01:19:11.197Z,11.94
2023-11-20T01:21:40.974Z,11.89
2023-11-20T01:24:09.000Z,11.99
2023-11-20T01:26:39.708Z,11.99
2023-11-20T01:29:08.507Z,12.07
2023-11-20T01:31:36.144Z,12.07
2023-11-20T01:34:03.973Z,12.07
2023-11-20T01:36:31.677Z,12.08
2023-11-20T01:38:59.265Z,12.01
2023-11-20T01:41:30.647Z,12.04
2023-11-20T01:43:58.253Z,12.10
2023-11-20T01:46:30.084Z,12.24
2023-11-20T01:49:00.239Z,12.16
2023-11-20T01:51:32.244Z,12.19
2023-11-20T01:54:00.663Z,12.25
2023-11-20T01:56:29.653Z,12.21
2023-11-20T01:59:02.425Z,12.20
2023-11-20T02:01:31.855Z,12.21
2023-11-20T02:04:02.028Z,12.12
2023-11-20T02:06:30.087Z,12.11
2023-11-20T02:08:58.166Z,12.14
2023-11-20T02:11:29.800Z,12.11
2023-11-20T02:13:59.379Z,12.23
2023-11-20T02:16:27.029Z,12.34
2023-11-20T02:18:54.787Z,12.38
2023-11-20T02:21:22.438Z,12.32
2023-11-20T02:23:50.129Z,12.28
2023-11-20T02:26:42.374Z,12.28
2023-11-20T02:29:30.933Z,12.27
2023-11-20T02:31:58.742Z,12.17
2023-11-20T02:34:26.451Z,12.26
2023-11-20T02:36:54.048Z,12.40
2023-11-20T02:39:21.693Z,12.26
2023-11-20T02:41:51.552Z,12.30
2023-11-20T02:44:19.243Z,12.44
2023-11-20T02:46:46.863Z,12.53
2023-11-20T02:49:14.607Z,12.61
2023-11-20T02:51:43.584Z,12.51
2023-11-20T02:54:11.325Z,12.63
2023-11-20T02:56:41.996Z,12.51
2023-11-20T02:59:09.563Z,12.50
2023-11-20T03:01:37.432Z,12.64
2023-11-20T03:04:05.828Z,12.74
2023-11-20T03:06:33.547Z,12.74
2023-11-20T03:09:01.137Z,12.69
2023-11-20T03:11:28.708Z,12.59
2023-11-20T03:13:56.294Z,12.65
2023-11-20T03:16:24.072Z,12.53
2023-11-20T03:18:51.726Z,12.54
2023-11-20T03:21:19.336Z,12.59
2023-11-20T03:23:46.901Z,12.51
2023-11-20T03:26:14.611Z,12.43
2023-11-20T03:28:42.184Z,12.44
2023-11-20T03:31:09.830Z,12.49
2023-11-20T03:33:37.517Z,12.46
2023-11-20T03:36:05.568Z,12.46
2023-11-20T03:38:33.145Z,12.37
2023-11-20T03:41:00.723Z,12.32
2023-11-20T03:43:29.440Z,12.41
2023-11-20T03:45:57.272Z,12.41
2023-11-20T03:48:24.944Z,12.34
2023-11-20T03:50:52.523Z,12.24
2023-11-20T03:53:20.865Z,12.32
2023-11-20T03:55:48.472Z,12.21
2023-11-20T03:58:16.082Z,12.17
2023-11-20T04:00:43.692Z,12.23
2023-11-20T04:03:11.306Z,12.11
2023-11-20T04:05:39.719Z,12.10
2023-11-20T04:08:09.096Z,11.91
2023-11-20T04:10:39.574Z,11.96
2023-11-20T04:13:08.960Z,12.08
2023-11-20T04:15:36.741Z,12.11
2023-11-20T04:18:04.383Z,11.89
2023-11-20T04:20:32.297Z,11.84
2023-11-20T04:23:00.238Z,11.94
2023-11-20T04:25:27.831Z,11.79
2023-11-20T04:27:55.592Z,11.65
2023-11-20T04:30:26.114Z,11.76
2023-11-20T04:32:53.737Z,11.72
2023-11-20T04:35:21.381Z,11.80
2023-11-20T04:37:48.981Z,11.77
2023-11-20T04:40:17.171Z,11.81
2023-11-20T04:42:45.427Z,12.00
2023-11-20T04:45:13.620Z,12.09
2023-11-20T04:47:41.910Z,12.09
2023-11-20T04:50:10.180Z,12.14
2023-11-20T04:52:38.103Z,12.20
2023-11-20T04:55:06.640Z,12.26
2023-11-20T04:57:34.976Z,12.32
2023-11-20T05:00:05.421Z,12.31
2023-11-20T05:02:33.062Z,12.28
2023-11-20T05:05:00.685Z,12.31
2023-11-20T05:07:28.352Z,12.34
2023-11-20T05:09:55.976Z,12.36
2023-11-20T05:12:23.579Z,12.29
2023-11-20T05:14:51.157Z,12.40
2023-11-20T05:17:21.334Z,12.41
2023-11-20T05:19:49.266Z,12.45
2023-11-20T05:22:18.432Z,12.47
2023-11-20T05:24:46.288Z,12.41
2023-11-20T05:27:13.932Z,12.42
2023-11-20T05:29:41.559Z,12.48
2023-11-20T05:32:09.324Z,12.51
2023-11-20T05:34:37.024Z,12.54
2023-11-20T05:37:04.827Z,12.53
2023-11-20T05:39:32.794Z,12.50
2023-11-20T05:42:00.338Z,12.42
2023-11-20T05:44:27.991Z,12.46
2023-11-20T05:46:55.697Z,12.56
2023-11-20T05:49:23.756Z,12.60
2023-11-20T05:51:52.779Z,12.58
2023-11-20T05:54:20.417Z,12.62
2023-11-20T05:56:48.313Z,12.59
2023-11-20T05:59:15.999Z,12.53
2023-11-20T06:01:44.128Z,12.54
2023-11-20T06:04:12.287Z,12.59
2023-11-20T06:06:40.418Z,12.65
2023-11-20T06:09:11.440Z,12.68
2023-11-20T06:11:39.202Z,12.67
2023-11-20T06:14:06.848Z,12.63
2023-11-20T06:16:34.605Z,12.65
2023-11-20T06:19:02.369Z,12.61
2023-11-20T06:21:30.030Z,12.59
2023-11-20T06:23:57.638Z,12.54
2023-11-20T06:26:27.114Z,12.54
2023-11-20T06:28:55.038Z,12.53
2023-11-20T06:31:22.650Z,12.43
2023-11-20T06:33:50.283Z,12.44
2023-11-20T06:36:18.398Z,12.47
2023-11-20T06:38:46.068Z,12.44
2023-11-20T06:41:18.451Z,12.39
2023-11-20T06:43:46.613Z,12.45
2023-11-20T06:46:22.430Z,12.53
2023-11-20T06:48:50.569Z,12.53
2023-11-20T06:51:18.234Z,12.58
2023-11-20T06:53:45.817Z,12.65
2023-11-20T06:56:22.876Z,12.66
2023-11-20T06:58:52.573Z,12.63
2023-11-20T07:01:20.357Z,12.57
2023-11-20T07:03:48.052Z,12.53
2023-11-20T07:06:16.787Z,12.58
2023-11-20T07:08:44.985Z,12.57
2023-11-20T07:11:12.575Z,12.63
2023-11-20T07:13:40.148Z,12.61
2023-11-20T07:16:09.053Z,12.50
2023-11-20T07:18:36.706Z,12.48
2023-11-20T07:21:04.544Z,12.53
2023-11-20T07:23:32.168Z,12.46
2023-11-20T07:25:59.791Z,12.49
2023-11-20T07:28:27.522Z,12.41
2023-11-20T07:30:55.170Z,12.49
2023-11-20T07:33:22.789Z,12.57
2023-11-20T07:35:52.179Z,12.58
2023-11-20T07:38:19.824Z,12.66
2023-11-20T07:40:47.483Z,12.63
2023-11-20T07:43:17.353Z,12.66
2023-11-20T07:45:46.711Z,12.60
2023-11-20T07:48:14.407Z,12.63
2023-11-20T07:50:42.090Z,12.62
2023-11-20T07:53:09.786Z,12.64
2023-11-20T07:55:37.363Z,12.63
2023-11-20T07:58:05.255Z,12.66
2023-11-20T08:00:33.199Z,12.69
2023-11-20T08:03:00.809Z,12.70
2023-11-20T08:05:29.531Z,12.72
2023-11-20T08:07:58.049Z,12.79
2023-11-20T08:10:25.717Z,12.82
2023-11-20T08:12:53.462Z,12.86
2023-11-20T08:15:21.048Z,12.87
2023-11-20T08:17:48.782Z,12.91
2023-11-20T08:20:19.323Z,12.95
2023-11-20T08:22:46.923Z,12.89
2023-11-20T08:25:14.999Z,12.80
2023-11-20T08:27:44.792Z,12.89
2023-11-20T08:30:12.941Z,12.94
2023-11-20T08:32:40.635Z,12.99
2023-11-20T08:35:10.353Z,13.02
2023-11-20T08:37:37.983Z,13.03
2023-11-20T08:40:09.944Z,13.07
2023-11-20T08:42:37.674Z,13.11
2023-11-20T08:45:06.201Z,13.14
2023-11-20T08:47:36.213Z,13.19
2023-11-20T08:50:04.697Z,13.21
2023-11-20T08:52:32.402Z,13.18
2023-11-20T08:55:00.008Z,13.22
2023-11-20T08:57:27.623Z,13.23
2023-11-20T08:59:55.322Z,13.13
2023-11-20T09:02:23.859Z,13.09
2023-11-20T09:04:51.695Z,13.03
2023-11-20T09:07:19.491Z,13.07
2023-11-20T09:09:47.196Z,13.11
2023-11-20T09:12:14.858Z,13.11
2023-11-20T09:14:43.676Z,13.13
2023-11-20T09:17:11.335Z,13.11
2023-11-20T09:19:38.954Z,13.12
2023-11-20T09:22:06.603Z,13.12
2023-11-20T09:24:34.235Z,13.15
2023-11-20T09:27:01.859Z,13.11
2023-11-20T09:29:29.438Z,13.18
2023-11-20T09:31:57.109Z,13.24
2023-11-20T09:34:24.911Z,13.29
2023-11-20T09:36:52.695Z,13.26
2023-11-20T09:39:20.959Z,13.25
2023-11-20T09:41:48.715Z,13.20
2023-11-20T09:44:19.077Z,13.02
2023-11-20T09:46:47.906Z,12.95
2023-11-20T09:49:24.062Z,12.88
2023-11-20T09:51:56.449Z,12.90
2023-11-20T09:54:27.425Z,12.83
2023-11-20T09:56:55.480Z,12.78
2023-11-20T09:59:23.373Z,12.70
2023-11-20T10:01:52.928Z,12.78
2023-11-20T10:04:22.417Z,12.79
2023-11-20T10:06:53.094Z,12.90
2023-11-20T10:09:23.166Z,12.97
2023-11-20T10:11:54.363Z,13.04
2023-11-20T10:14:21.971Z,13.06
2023-11-20T10:16:52.471Z,13.13
2023-11-20T10:19:20.375Z,13.22
2023-11-20T10:21:49.000Z,13.25
2023-11-20T10:24:20.240Z,13.32
2023-11-20T10:26:47.865Z,13.28
2023-11-20T10:29:17.117Z,13.17
2023-11-20T10:31:46.249Z,13.28
2023-11-20T10:34:15.231Z,13.16
2023-11-20T10:36:42.871Z,13.13
2023-11-20T10:39:13.283Z,13.17
2023-11-20T10:41:42.943Z,13.08
2023-11-20T10:44:10.804Z,12.91
2023-11-20T10:46:42.677Z,12.87
2023-11-20T10:49:13.990Z,12.88
2023-11-20T10:51:48.341Z,12.86
2023-11-20T10:54:18.568Z,12.56
2023-11-20T10:56:47.702Z,12.49
2023-11-20T10:59:18.192Z,12.55
2023-11-20T11:01:46.148Z,12.55
2023-11-20T11:04:15.270Z,12.57
2023-11-20T11:06:47.076Z,12.58
2023-11-20T11:09:19.247Z,12.64
2023-11-20T11:11:50.533Z,12.53
2023-11-20T11:14:18.148Z,12.54
2023-11-20T11:16:54.002Z,12.57
2023-11-20T11:19:29.095Z,12.61
2023-11-20T11:22:03.576Z,12.49
2023-11-20T11:24:37.201Z,12.55
2023-11-20T11:27:18.880Z,12.60
2023-11-20T11:29:57.732Z,12.47
2023-11-20T11:32:41.950Z,12.53
2023-11-20T11:35:24.957Z,12.56
2023-11-20T11:38:22.321Z,12.46
2023-11-20T11:41:24.833Z,12.40
2023-11-20T11:44:17.377Z,12.43
2023-11-20T11:46:45.252Z,12.53
2023-11-20T11:49:24.187Z,12.50
2023-11-20T11:51:58.381Z,12.45
2023-11-20T11:54:27.949Z,12.37
2023-11-20T11:57:05.505Z,12.50
2023-11-20T11:59:38.949Z,12.55
2023-11-20T12:02:08.797Z,12.61
2023-11-20T12:04:57.378Z,12.63
2023-11-20T12:07:47.125Z,12.63
2023-11-20T12:10:15.233Z,12.72
2023-11-20T12:12:58.721Z,12.66
2023-11-20T12:15:38.823Z,12.71
2023-11-20T12:18:14.767Z,12.67
2023-11-20T12:21:09.867Z,12.39
2023-11-20T12:23:45.237Z,12.55
2023-11-20T12:26:14.917Z,12.57
2023-11-20T12:28:43.322Z,12.57
2023-11-20T12:31:13.639Z,12.60
2023-11-20T12:33:45.066Z,12.63
2023-11-20T12:36:13.764Z,12.72
2023-11-20T12:38:44.560Z,12.80
2023-11-20T12:41:12.546Z,12.80
2023-11-20T12:43:40.533Z,12.77
2023-11-20T12:46:09.453Z,12.86
2023-11-20T12:48:41.070Z,12.91
2023-11-20T12:51:09.291Z,12.95
2023-11-20T12:53:38.962Z,12.98
2023-11-20T12:56:08.880Z,12.98
2023-11-20T12:58:36.679Z,13.03
2023-11-20T13:01:05.907Z,12.95
2023-11-20T13:03:36.390Z,12.97
2023-11-20T13:06:07.347Z,12.86
2023-11-20T13:08:36.966Z,12.89
2023-11-20T13:11:05.104Z,12.85
2023-11-20T13:13:33.421Z,12.94
2023-11-20T13:16:01.605Z,12.89
2023-11-20T13:18:30.309Z,12.88
2023-11-20T13:20:58.939Z,12.93
2023-11-20T13:23:31.178Z,12.95
2023-11-20T13:26:10.171Z,13.08
2023-11-20T13:28:39.059Z,13.01
2023-11-20T13:31:09.527Z,13.04
2023-11-20T13:33:42.865Z,13.04
2023-11-20T13:36:11.973Z,12.91
2023-11-20T13:38:40.040Z,12.98
2023-11-20T13:41:08.792Z,12.95
2023-11-20T13:43:36.816Z,12.96
2023-11-20T13:46:07.594Z,12.94
2023-11-20T13:48:36.044Z,12.85
2023-11-20T13:51:06.207Z,12.76
2023-11-20T13:53:34.886Z,12.87
2023-11-20T13:56:02.563Z,12.77
2023-11-20T13:58:30.221Z,12.91
2023-11-20T14:01:00.807Z,12.89
2023-11-20T14:03:31.506Z,12.88
2023-11-20T14:06:01.347Z,12.71
2023-11-20T14:08:31.690Z,12.60
2023-11-20T14:11:00.295Z,12.57
2023-11-20T14:13:31.305Z,12.31
2023-11-20T14:16:00.122Z,12.20
2023-11-20T14:18:29.123Z,12.23
2023-11-20T14:20:58.273Z,12.16
2023-11-20T14:23:26.082Z,12.22
2023-11-20T14:28:24.439Z,12.24
2023-11-20T14:30:53.345Z,12.23
2023-11-20T14:33:21.002Z,12.29
2023-11-20T14:35:49.156Z,12.32
2023-11-20T14:38:16.802Z,12.25
2023-11-20T14:40:45.148Z,12.29
2023-11-20T14:43:13.458Z,12.25
2023-11-20T14:45:41.122Z,12.33
2023-11-20T14:48:08.732Z,12.40
2023-11-20T14:50:36.350Z,12.37
2023-11-20T14:53:05.055Z,12.41
2023-11-20T14:55:34.464Z,12.34
2023-11-20T14:58:02.404Z,12.33
2023-11-20T15:00:30.059Z,12.37
2023-11-20T15:03:00.549Z,12.34
2023-11-20T15:05:28.447Z,12.23
2023-11-20T15:07:56.041Z,12.09
2023-11-20T15:10:23.911Z,11.94
2023-11-20T15:12:52.700Z,11.99
2023-11-20T15:15:20.989Z,11.88
2023-11-20T15:17:48.916Z,11.84
2023-11-20T15:20:19.324Z,11.89
2023-11-20T15:22:47.508Z,11.91
2023-11-20T15:25:17.725Z,11.90
2023-11-20T15:27:46.089Z,11.87
2023-11-20T15:30:16.279Z,11.88
2023-11-20T15:32:46.350Z,11.89
2023-11-20T15:35:15.335Z,11.90
2023-11-20T15:37:43.658Z,11.88
2023-11-20T15:40:12.783Z,11.88
2023-11-20T15:42:42.939Z,11.89
2023-11-20T15:45:12.222Z,11.92
2023-11-20T15:47:40.135Z,11.91
2023-11-20T15:50:08.695Z,11.90
2023-11-20T15:52:36.380Z,11.80
2023-11-20T15:55:04.443Z,11.77
2023-11-20T15:57:32.165Z,11.82
2023-11-20T16:00:00.923Z,11.83
2023-11-20T16:02:32.230Z,11.76
2023-11-20T16:05:00.067Z,11.69
2023-11-20T16:07:27.727Z,11.65
2023-11-20T16:09:56.720Z,11.63
2023-11-20T16:12:24.405Z,11.60
2023-11-20T16:14:54.465Z,11.61
2023-11-20T16:17:22.085Z,11.65
2023-11-20T16:19:49.722Z,11.54
2023-11-20T16:22:17.654Z,11.57
2023-11-20T16:24:45.325Z,11.61
2023-11-20T16:27:12.952Z,11.62
2023-11-20T16:29:40.523Z,11.65
2023-11-20T16:32:08.152Z,11.69
2023-11-20T16:34:37.532Z,11.67
2023-11-20T16:37:08.547Z,11.65
2023-11-20T16:39:36.650Z,11.61
2023-11-20T16:42:05.092Z,11.61
2023-11-20T16:44:32.673Z,11.63
2023-11-20T16:47:00.517Z,11.61
2023-11-20T16:49:28.419Z,11.55
2023-11-20T16:51:58.135Z,11.59
2023-11-20T16:54:25.756Z,11.59
2023-11-20T16:56:53.772Z,11.62
2023-11-20T16:59:21.407Z,11.60
2023-11-20T17:01:49.122Z,11.58
2023-11-20T17:04:16.945Z,11.58
2023-11-20T17:06:45.889Z,11.58
2023-11-20T17:09:15.777Z,11.58
2023-11-20T17:11:43.578Z,11.57
2023-11-20T17:14:11.216Z,11.55
2023-11-20T17:16:38.851Z,11.57
2023-11-20T17:19:06.685Z,11.56
2023-11-20T17:21:34.397Z,11.54
2023-11-20T17:24:01.982Z,11.49
2023-11-20T17:26:30.353Z,11.47
2023-11-20T17:28:57.941Z,11.48
2023-11-20T17:31:28.628Z,11.48
2023-11-20T17:33:59.047Z,11.48
2023-11-20T17:36:27.990Z,11.43
2023-11-20T17:38:55.667Z,11.43
2023-11-20T17:41:23.279Z,11.43
2023-11-20T17:43:50.893Z,11.39
2023-11-20T17:46:19.025Z,11.36
2023-11-20T17:48:46.764Z,11.34
2023-11-20T17:51:14.326Z,11.32
2023-11-20T17:53:41.906Z,11.30
2023-11-20T17:56:10.923Z,11.27
2023-11-20T17:58:38.666Z,11.30
2023-11-20T18:01:06.767Z,11.28
2023-11-20T18:03:34.791Z,11.28
2023-11-20T18:06:02.683Z,11.27
2023-11-20T18:08:30.861Z,11.26
2023-11-20T18:10:59.915Z,11.25
2023-11-20T18:13:27.565Z,11.27
2023-11-20T18:15:55.489Z,11.23
2023-11-20T18:18:23.110Z,11.27
2023-11-20T18:20:50.988Z,11.28
2023-11-20T18:23:18.627Z,11.25
2023-11-20T18:25:46.397Z,11.22
2023-11-20T18:28:16.294Z,11.22
2023-11-20T18:30:43.880Z,11.23
2023-11-20T18:33:12.273Z,11.20
2023-11-20T18:35:39.911Z,11.19
2023-11-20T18:38:07.591Z,11.20
2023-11-20T18:40:35.200Z,11.20
2023-11-20T18:43:03.091Z,11.21
2023-11-20T18:45:30.681Z,11.18
2023-11-20T18:47:58.341Z,11.16
2023-11-20T18:50:26.001Z,11.14
2023-11-20T18:52:53.611Z,11.13
2023-11-20T18:55:22.047Z,11.14
2023-11-20T18:57:54.232Z,11.17
2023-11-20T19:00:23.979Z,11.18
2023-11-20T19:02:53.032Z,11.20
2023-11-20T19:05:20.832Z,11.21
2023-11-20T19:07:51.292Z,11.19
2023-11-20T19:10:18.984Z,11.19
2023-11-20T19:12:46.697Z,11.22
2023-11-20T19:15:14.506Z,11.24
2023-11-20T19:17:42.688Z,11.28
2023-11-20T19:20:15.925Z,11.29
2023-11-20T19:22:43.896Z,11.31
2023-11-20T19:25:15.403Z,11.31
2023-11-20T19:27:44.453Z,11.33
2023-11-20T19:30:17.370Z,11.31
2023-11-20T19:32:47.663Z,11.25
2023-11-20T19:35:17.237Z,11.19
2023-11-20T19:37:45.639Z,11.20
2023-11-20T19:40:14.717Z,11.15
2023-11-20T19:42:45.418Z,11.13
2023-11-20T19:45:14.315Z,11.14
2023-11-20T19:47:42.816Z,11.16
2023-11-20T19:50:10.857Z,11.17
2023-11-20T19:52:38.689Z,11.17
2023-11-20T19:55:07.622Z,11.20
2023-11-20T19:57:35.326Z,11.22
2023-11-20T20:00:06.768Z,11.23
2023-11-20T20:02:36.367Z,11.26
2023-11-20T20:05:04.386Z,11.29
2023-11-20T20:07:32.083Z,11.28
2023-11-20T20:10:00.216Z,11.27
2023-11-20T20:12:28.652Z,11.28
2023-11-20T20:14:56.261Z,11.27
2023-11-20T20:17:23.886Z,11.28
2023-11-20T20:19:51.804Z,11.27
2023-11-20T20:22:20.662Z,11.27
2023-11-20T20:24:48.395Z,11.26
2023-11-20T20:27:16.024Z,11.25
2023-11-20T20:29:44.010Z,11.24
2023-11-20T20:32:14.213Z,11.24
2023-11-20T20:34:43.710Z,11.23
2023-11-20T20:37:12.018Z,11.22
2023-11-20T20:39:41.091Z,11.25
2023-11-20T20:42:09.789Z,11.23
2023-11-20T20:44:44.791Z,11.24
2023-11-20T20:47:12.391Z,11.19
2023-11-20T20:49:40.112Z,11.16
2023-11-20T20:52:10.678Z,11.19
2023-11-20T20:54:40.959Z,11.19
2023-11-20T20:57:09.711Z,11.16
2023-11-20T20:59:37.296Z,11.11
2023-11-20T21:02:04.995Z,11.08
2023-11-20T21:04:32.694Z,11.07
2023-11-20T21:07:04.063Z,11.06
2023-11-20T21:09:31.827Z,11.04
2023-11-20T21:12:00.284Z,11.01
2023-11-20T21:14:28.407Z,10.98
2023-11-20T21:16:56.246Z,10.97
2023-11-20T21:19:23.967Z,10.97
2023-11-20T21:21:51.636Z,10.99
2023-11-20T21:24:19.339Z,10.99
2023-11-20T21:26:47.194Z,10.94
2023-11-20T21:29:16.027Z,10.92
2023-11-20T21:31:47.381Z,10.90
2023-11-20T21:34:18.267Z,10.89
2023-11-20T21:36:46.169Z,10.86
2023-11-20T21:39:19.365Z,10.84
2023-11-20T21:41:50.577Z,10.79
2023-11-20T21:44:19.132Z,10.80
2023-11-20T21:46:46.877Z,10.83
2023-11-20T21:49:14.623Z,10.83
2023-11-20T21:51:42.230Z,10.83
2023-11-20T21:54:10.330Z,10.86
2023-11-20T21:56:41.207Z,10.76
2023-11-20T21:59:09.065Z,10.78
2023-11-20T22:01:36.715Z,10.75
2023-11-20T22:04:05.055Z,10.71
2023-11-20T22:06:32.780Z,10.56
2023-11-20T22:09:00.402Z,10.54
2023-11-20T22:11:28.023Z,10.55
2023-11-20T22:13:55.713Z,10.48
2023-11-20T22:16:23.387Z,10.49
2023-11-20T22:18:52.987Z,10.40
2023-11-20T22:21:21.005Z,10.43
2023-11-20T22:23:48.593Z,10.43
2023-11-20T22:26:16.261Z,10.38
2023-11-20T22:28:43.909Z,10.42
2023-11-20T22:31:12.170Z,10.41
2023-11-20T22:33:39.875Z,10.41
2023-11-20T22:36:09.616Z,10.40
2023-11-20T22:38:37.243Z,10.41
2023-11-20T22:41:09.195Z,10.44
2023-11-20T22:43:37.588Z,10.33
2023-11-20T22:46:05.397Z,10.37
2023-11-20T22:48:33.351Z,10.34
2023-11-20T22:51:01.021Z,10.34
2023-11-20T22:53:29.069Z,10.33
2023-11-20T22:55:56.685Z,10.32
2023-11-20T22:58:24.912Z,10.33
2023-11-20T23:00:52.624Z,10.31
2023-11-20T23:03:20.750Z,10.31
2023-11-20T23:05:48.651Z,10.33
2023-11-20T23:08:16.314Z,10.34
2023-11-20T23:10:45.239Z,10.31
2023-11-20T23:13:14.274Z,10.20
2023-11-20T23:15:42.086Z,10.17
2023-11-20T23:18:09.861Z,10.17
2023-11-20T23:20:38.131Z,10.11
2023-11-20T23:23:05.813Z,10.11
2023-11-20T23:25:33.449Z,10.13
2023-11-20T23:28:01.800Z,10.06
2023-11-20T23:30:31.266Z,10.04
2023-11-20T23:32:59.088Z,10.02
2023-11-20T23:35:27.859Z,10.01
2023-11-20T23:37:55.455Z,10.03
2023-11-20T23:40:23.425Z,10.02
2023-11-20T23:42:51.339Z,10.01
2023-11-20T23:45:19.122Z,10.03
2023-11-20T23:47:48.351Z,10.02
2023-11-20T23:50:16.350Z,10.01
2023-11-20T23:52:44.531Z,9.96
2023-11-20T23:55:12.604Z,9.95
2023-11-20T23:57:40.221Z,9.97
